sensor_id;sensor_type;location;lat;lon;timestamp;P1;durP1;ratioP1;P2;durP2;ratioP2
2698;SDS011;1359;51.798;12.174;2023-05-10T00:01:20;8.10;;;5.80;;
2698;SDS011;1359;51.798;12.174;2023-05-10T00:03:45;5.90;;;5.37;;
2698;SDS011;1359;51.798;12.174;2023-05-10T00:06:10;7.23;;;6.40;;
2698;SDS011;1359;51.798;12.174;2023-05-10T00:08:36;7.33;;;5.30;;
2698;SDS011;1359;51.798;12.174;2023-05-10T00:11:01;6.53;;;6.03;;
2698;SDS011;1359;51.798;12.174;2023-05-10T00:13:26;6.47;;;5.87;;
2698;SDS011;1359;51.798;12.174;2023-05-10T00:15:52;6.90;;;5.93;;
2698;SDS011;1359;51.798;12.174;2023-05-10T00:18:17;6.17;;;4.83;;
2698;SDS011;1359;51.798;12.174;2023-05-10T00:20:42;8.20;;;7.40;;
2698;SDS011;1359;51.798;12.174;2023-05-10T00:23:07;11.43;;;6.97;;
2698;SDS011;1359;51.798;12.174;2023-05-10T00:25:33;7.50;;;5.83;;
2698;SDS011;1359;51.798;12.174;2023-05-10T00:27:58;11.43;;;6.70;;
2698;SDS011;1359;51.798;12.174;2023-05-10T00:30:26;8.40;;;5.97;;
2698;SDS011;1359;51.798;12.174;2023-05-10T00:32:51;6.10;;;5.50;;
2698;SDS011;1359;51.798;12.174;2023-05-10T00:35:17;10.60;;;6.30;;
2698;SDS011;1359;51.798;12.174;2023-05-10T00:37:42;9.10;;;5.60;;
2698;SDS011;1359;51.798;12.174;2023-05-10T00:40:07;6.70;;;5.23;;
2698;SDS011;1359;51.798;12.174;2023-05-10T00:42:33;6.73;;;6.00;;
2698;SDS011;1359;51.798;12.174;2023-05-10T00:44:58;7.90;;;6.40;;
2698;SDS011;1359;51.798;12.174;2023-05-10T00:47:24;6.70;;;5.80;;
2698;SDS011;1359;51.798;12.174;2023-05-10T00:49:49;9.37;;;6.47;;
2698;SDS011;1359;51.798;12.174;2023-05-10T00:52:15;7.17;;;6.17;;
2698;SDS011;1359;51.798;12.174;2023-05-10T00:54:40;7.83;;;6.27;;
2698;SDS011;1359;51.798;12.174;2023-05-10T00:57:06;8.23;;;6.20;;
2698;SDS011;1359;51.798;12.174;2023-05-10T00:59:31;6.20;;;5.70;;
2698;SDS011;1359;51.798;12.174;2023-05-10T01:01:57;8.43;;;5.60;;
2698;SDS011;1359;51.798;12.174;2023-05-10T01:04:23;5.83;;;5.23;;
2698;SDS011;1359;51.798;12.174;2023-05-10T01:06:51;7.03;;;5.57;;
2698;SDS011;1359;51.798;12.174;2023-05-10T01:09:16;7.43;;;5.70;;
2698;SDS011;1359;51.798;12.174;2023-05-10T01:11:43;10.23;;;6.13;;
2698;SDS011;1359;51.798;12.174;2023-05-10T01:14:08;6.63;;;6.00;;
2698;SDS011;1359;51.798;12.174;2023-05-10T01:16:35;6.57;;;5.97;;
2698;SDS011;1359;51.798;12.174;2023-05-10T01:19:01;6.20;;;5.70;;
2698;SDS011;1359;51.798;12.174;2023-05-10T01:21:33;6.40;;;5.80;;
2698;SDS011;1359;51.798;12.174;2023-05-10T01:24:18;7.63;;;6.63;;
2698;SDS011;1359;51.798;12.174;2023-05-10T01:26:55;6.27;;;5.70;;
2698;SDS011;1359;51.798;12.174;2023-05-10T01:29:47;6.63;;;6.03;;
2698;SDS011;1359;51.798;12.174;2023-05-10T01:32:24;5.77;;;5.27;;
2698;SDS011;1359;51.798;12.174;2023-05-10T01:37:49;7.73;;;5.87;;
2698;SDS011;1359;51.798;12.174;2023-05-10T01:43:25;8.20;;;5.70;;
2698;SDS011;1359;51.798;12.174;2023-05-10T01:46:02;6.17;;;5.33;;
2698;SDS011;1359;51.798;12.174;2023-05-10T01:48:35;6.37;;;5.77;;
2698;SDS011;1359;51.798;12.174;2023-05-10T01:51:01;7.37;;;6.77;;
2698;SDS011;1359;51.798;12.174;2023-05-10T01:53:27;13.97;;;6.17;;
2698;SDS011;1359;51.798;12.174;2023-05-10T01:55:53;7.53;;;6.37;;
2698;SDS011;1359;51.798;12.174;2023-05-10T01:58:22;7.67;;;5.93;;
2698;SDS011;1359;51.798;12.174;2023-05-10T02:00:48;7.03;;;6.33;;
2698;SDS011;1359;51.798;12.174;2023-05-10T02:03:14;7.53;;;5.20;;
2698;SDS011;1359;51.798;12.174;2023-05-10T02:05:41;6.40;;;5.77;;
2698;SDS011;1359;51.798;12.174;2023-05-10T02:08:10;7.43;;;5.90;;
2698;SDS011;1359;51.798;12.174;2023-05-10T02:10:36;7.43;;;6.20;;
2698;SDS011;1359;51.798;12.174;2023-05-10T02:13:02;6.50;;;5.90;;
2698;SDS011;1359;51.798;12.174;2023-05-10T02:15:28;7.50;;;5.97;;
2698;SDS011;1359;51.798;12.174;2023-05-10T02:17:55;7.53;;;6.23;;
2698;SDS011;1359;51.798;12.174;2023-05-10T02:20:20;6.67;;;6.07;;
2698;SDS011;1359;51.798;12.174;2023-05-10T02:22:47;6.47;;;5.87;;
2698;SDS011;1359;51.798;12.174;2023-05-10T02:25:13;6.53;;;5.83;;
2698;SDS011;1359;51.798;12.174;2023-05-10T02:27:41;7.00;;;6.30;;
2698;SDS011;1359;51.798;12.174;2023-05-10T02:30:07;6.27;;;5.70;;
2698;SDS011;1359;51.798;12.174;2023-05-10T02:32:33;7.63;;;6.57;;
2698;SDS011;1359;51.798;12.174;2023-05-10T02:34:59;7.70;;;6.23;;
2698;SDS011;1359;51.798;12.174;2023-05-10T02:37:25;6.10;;;5.50;;
2698;SDS011;1359;51.798;12.174;2023-05-10T02:39:52;10.80;;;6.67;;
2698;SDS011;1359;51.798;12.174;2023-05-10T02:42:19;7.50;;;6.80;;
2698;SDS011;1359;51.798;12.174;2023-05-10T02:44:47;6.40;;;5.80;;
2698;SDS011;1359;51.798;12.174;2023-05-10T02:47:14;10.93;;;6.83;;
2698;SDS011;1359;51.798;12.174;2023-05-10T02:49:39;16.40;;;6.30;;
2698;SDS011;1359;51.798;12.174;2023-05-10T02:52:05;8.97;;;7.53;;
2698;SDS011;1359;51.798;12.174;2023-05-10T02:54:33;7.43;;;6.60;;
2698;SDS011;1359;51.798;12.174;2023-05-10T02:57:00;7.17;;;6.47;;
2698;SDS011;1359;51.798;12.174;2023-05-10T02:59:26;6.50;;;6.00;;
2698;SDS011;1359;51.798;12.174;2023-05-10T03:01:52;8.07;;;6.37;;
2698;SDS011;1359;51.798;12.174;2023-05-10T03:04:17;7.87;;;7.07;;
2698;SDS011;1359;51.798;12.174;2023-05-10T03:06:42;7.97;;;6.00;;
2698;SDS011;1359;51.798;12.174;2023-05-10T03:09:08;7.20;;;6.60;;
2698;SDS011;1359;51.798;12.174;2023-05-10T03:16:38;13.60;;;8.10;;
2698;SDS011;1359;51.798;12.174;2023-05-10T03:19:11;7.00;;;6.37;;
2698;SDS011;1359;51.798;12.174;2023-05-10T03:21:41;7.63;;;6.93;;
2698;SDS011;1359;51.798;12.174;2023-05-10T03:24:08;12.13;;;7.93;;
2698;SDS011;1359;51.798;12.174;2023-05-10T03:26:37;7.40;;;5.87;;
2698;SDS011;1359;51.798;12.174;2023-05-10T03:29:11;8.27;;;6.80;;
2698;SDS011;1359;51.798;12.174;2023-05-10T03:31:38;7.87;;;7.17;;
2698;SDS011;1359;51.798;12.174;2023-05-10T03:34:03;8.60;;;6.30;;
2698;SDS011;1359;51.798;12.174;2023-05-10T03:36:29;8.23;;;6.23;;
2698;SDS011;1359;51.798;12.174;2023-05-10T03:38:55;7.17;;;6.50;;
2698;SDS011;1359;51.798;12.174;2023-05-10T03:41:20;8.70;;;6.90;;
2698;SDS011;1359;51.798;12.174;2023-05-10T03:43:46;8.43;;;7.10;;
2698;SDS011;1359;51.798;12.174;2023-05-10T03:46:12;7.10;;;6.30;;
2698;SDS011;1359;51.798;12.174;2023-05-10T03:48:37;11.17;;;6.97;;
2698;SDS011;1359;51.798;12.174;2023-05-10T03:51:03;7.67;;;6.40;;
2698;SDS011;1359;51.798;12.174;2023-05-10T03:53:28;6.30;;;5.70;;
2698;SDS011;1359;51.798;12.174;2023-05-10T03:55:54;7.60;;;6.67;;
2698;SDS011;1359;51.798;12.174;2023-05-10T03:58:19;7.27;;;5.53;;
2698;SDS011;1359;51.798;12.174;2023-05-10T04:00:45;12.90;;;7.03;;
2698;SDS011;1359;51.798;12.174;2023-05-10T04:03:11;7.83;;;6.50;;
2698;SDS011;1359;51.798;12.174;2023-05-10T04:05:37;7.03;;;6.33;;
2698;SDS011;1359;51.798;12.174;2023-05-10T04:08:03;6.57;;;5.60;;
2698;SDS011;1359;51.798;12.174;2023-05-10T04:10:29;7.00;;;6.40;;
2698;SDS011;1359;51.798;12.174;2023-05-10T04:12:54;8.70;;;7.20;;
2698;SDS011;1359;51.798;12.174;2023-05-10T04:15:20;9.10;;;6.90;;
2698;SDS011;1359;51.798;12.174;2023-05-10T04:20:20;9.57;;;7.30;;
2698;SDS011;1359;51.798;12.174;2023-05-10T04:22:45;15.07;;;13.37;;
2698;SDS011;1359;51.798;12.174;2023-05-10T04:25:10;20.93;;;14.17;;
2698;SDS011;1359;51.798;12.174;2023-05-10T04:27:36;29.70;;;21.60;;
2698;SDS011;1359;51.798;12.174;2023-05-10T04:30:01;14.63;;;12.93;;
2698;SDS011;1359;51.798;12.174;2023-05-10T04:32:27;10.63;;;9.13;;
2698;SDS011;1359;51.798;12.174;2023-05-10T04:34:53;8.53;;;7.53;;
2698;SDS011;1359;51.798;12.174;2023-05-10T04:37:18;12.43;;;11.20;;
2698;SDS011;1359;51.798;12.174;2023-05-10T04:39:43;14.70;;;10.57;;
2698;SDS011;1359;51.798;12.174;2023-05-10T04:42:09;11.23;;;6.53;;
2698;SDS011;1359;51.798;12.174;2023-05-10T04:44:34;7.80;;;7.00;;
2698;SDS011;1359;51.798;12.174;2023-05-10T04:47:00;7.93;;;6.90;;
2698;SDS011;1359;51.798;12.174;2023-05-10T04:49:27;8.23;;;6.80;;
2698;SDS011;1359;51.798;12.174;2023-05-10T04:51:53;7.83;;;6.20;;
2698;SDS011;1359;51.798;12.174;2023-05-10T04:54:18;7.43;;;6.70;;
2698;SDS011;1359;51.798;12.174;2023-05-10T04:56:43;9.03;;;6.53;;
2698;SDS011;1359;51.798;12.174;2023-05-10T04:59:09;8.20;;;6.43;;
2698;SDS011;1359;51.798;12.174;2023-05-10T05:01:34;8.57;;;6.30;;
2698;SDS011;1359;51.798;12.174;2023-05-10T05:03:59;6.90;;;5.70;;
2698;SDS011;1359;51.798;12.174;2023-05-10T05:06:25;5.70;;;5.23;;
2698;SDS011;1359;51.798;12.174;2023-05-10T05:08:52;9.63;;;5.90;;
2698;SDS011;1359;51.798;12.174;2023-05-10T05:11:17;6.50;;;5.87;;
2698;SDS011;1359;51.798;12.174;2023-05-10T05:13:43;8.80;;;5.63;;
2698;SDS011;1359;51.798;12.174;2023-05-10T05:16:08;8.53;;;5.90;;
2698;SDS011;1359;51.798;12.174;2023-05-10T05:18:33;8.90;;;5.97;;
2698;SDS011;1359;51.798;12.174;2023-05-10T05:20:59;12.90;;;5.87;;
2698;SDS011;1359;51.798;12.174;2023-05-10T05:23:24;6.37;;;5.03;;
2698;SDS011;1359;51.798;12.174;2023-05-10T05:25:52;6.70;;;5.47;;
2698;SDS011;1359;51.798;12.174;2023-05-10T05:28:19;5.97;;;5.37;;
2698;SDS011;1359;51.798;12.174;2023-05-10T05:30:44;6.77;;;5.23;;
2698;SDS011;1359;51.798;12.174;2023-05-10T05:33:09;6.07;;;5.47;;
2698;SDS011;1359;51.798;12.174;2023-05-10T05:35:35;8.70;;;5.30;;
2698;SDS011;1359;51.798;12.174;2023-05-10T05:38:00;5.57;;;5.00;;
2698;SDS011;1359;51.798;12.174;2023-05-10T05:40:26;13.10;;;5.33;;
2698;SDS011;1359;51.798;12.174;2023-05-10T05:42:51;5.77;;;4.60;;
2698;SDS011;1359;51.798;12.174;2023-05-10T05:45:16;6.23;;;5.30;;
2698;SDS011;1359;51.798;12.174;2023-05-10T05:47:42;11.03;;;4.87;;
2698;SDS011;1359;51.798;12.174;2023-05-10T05:50:07;5.83;;;4.83;;
2698;SDS011;1359;51.798;12.174;2023-05-10T05:52:33;3.70;;;3.33;;
2698;SDS011;1359;51.798;12.174;2023-05-10T05:54:58;5.63;;;5.13;;
2698;SDS011;1359;51.798;12.174;2023-05-10T05:57:24;5.10;;;4.70;;
2698;SDS011;1359;51.798;12.174;2023-05-10T05:59:49;4.63;;;4.23;;
2698;SDS011;1359;51.798;12.174;2023-05-10T06:02:14;5.90;;;5.40;;
2698;SDS011;1359;51.798;12.174;2023-05-10T06:04:40;5.73;;;5.23;;
2698;SDS011;1359;51.798;12.174;2023-05-10T06:07:05;5.13;;;4.57;;
2698;SDS011;1359;51.798;12.174;2023-05-10T06:09:30;6.77;;;5.23;;
2698;SDS011;1359;51.798;12.174;2023-05-10T06:11:56;10.23;;;5.37;;
2698;SDS011;1359;51.798;12.174;2023-05-10T06:14:21;7.50;;;5.53;;
2698;SDS011;1359;51.798;12.174;2023-05-10T06:16:47;9.80;;;6.00;;
2698;SDS011;1359;51.798;12.174;2023-05-10T06:19:12;8.30;;;4.77;;
2698;SDS011;1359;51.798;12.174;2023-05-10T06:21:37;5.33;;;4.83;;
2698;SDS011;1359;51.798;12.174;2023-05-10T06:24:03;6.40;;;5.03;;
2698;SDS011;1359;51.798;12.174;2023-05-10T06:26:28;6.40;;;5.80;;
2698;SDS011;1359;51.798;12.174;2023-05-10T06:28:53;4.90;;;4.50;;
2698;SDS011;1359;51.798;12.174;2023-05-10T06:31:19;5.33;;;4.83;;
2698;SDS011;1359;51.798;12.174;2023-05-10T06:33:44;7.23;;;5.73;;
2698;SDS011;1359;51.798;12.174;2023-05-10T06:36:10;7.30;;;5.40;;
2698;SDS011;1359;51.798;12.174;2023-05-10T06:38:35;7.73;;;6.37;;
2698;SDS011;1359;51.798;12.174;2023-05-10T06:41:01;6.40;;;5.80;;
2698;SDS011;1359;51.798;12.174;2023-05-10T06:43:26;6.87;;;4.70;;
2698;SDS011;1359;51.798;12.174;2023-05-10T06:45:53;7.53;;;5.30;;
2698;SDS011;1359;51.798;12.174;2023-05-10T06:48:19;7.03;;;6.10;;
2698;SDS011;1359;51.798;12.174;2023-05-10T06:50:44;6.80;;;6.20;;
2698;SDS011;1359;51.798;12.174;2023-05-10T06:53:09;7.57;;;6.50;;
2698;SDS011;1359;51.798;12.174;2023-05-10T06:55:35;8.67;;;6.47;;
2698;SDS011;1359;51.798;12.174;2023-05-10T06:58:00;6.10;;;5.33;;
2698;SDS011;1359;51.798;12.174;2023-05-10T07:00:25;7.47;;;6.50;;
2698;SDS011;1359;51.798;12.174;2023-05-10T07:02:51;8.03;;;5.40;;
2698;SDS011;1359;51.798;12.174;2023-05-10T07:05:16;6.40;;;5.70;;
2698;SDS011;1359;51.798;12.174;2023-05-10T07:07:41;8.47;;;5.67;;
2698;SDS011;1359;51.798;12.174;2023-05-10T07:10:07;7.10;;;6.50;;
2698;SDS011;1359;51.798;12.174;2023-05-10T07:12:33;7.53;;;6.10;;
2698;SDS011;1359;51.798;12.174;2023-05-10T07:14:58;13.60;;;6.83;;
2698;SDS011;1359;51.798;12.174;2023-05-10T07:17:23;6.03;;;5.43;;
2698;SDS011;1359;51.798;12.174;2023-05-10T07:19:49;8.97;;;6.20;;
2698;SDS011;1359;51.798;12.174;2023-05-10T07:22:14;6.10;;;5.50;;
2698;SDS011;1359;51.798;12.174;2023-05-10T07:24:40;6.70;;;6.00;;
2698;SDS011;1359;51.798;12.174;2023-05-10T07:27:05;6.67;;;6.07;;
2698;SDS011;1359;51.798;12.174;2023-05-10T07:29:30;10.00;;;6.37;;
2698;SDS011;1359;51.798;12.174;2023-05-10T07:31:56;9.77;;;6.47;;
2698;SDS011;1359;51.798;12.174;2023-05-10T07:34:21;6.63;;;5.93;;
2698;SDS011;1359;51.798;12.174;2023-05-10T07:36:46;6.23;;;5.73;;
2698;SDS011;1359;51.798;12.174;2023-05-10T07:39:12;5.70;;;5.20;;
2698;SDS011;1359;51.798;12.174;2023-05-10T07:41:37;11.30;;;7.10;;
2698;SDS011;1359;51.798;12.174;2023-05-10T07:44:04;6.87;;;6.27;;
2698;SDS011;1359;51.798;12.174;2023-05-10T07:46:29;6.40;;;5.90;;
2698;SDS011;1359;51.798;12.174;2023-05-10T07:48:54;7.60;;;5.90;;
2698;SDS011;1359;51.798;12.174;2023-05-10T07:51:20;10.60;;;7.13;;
2698;SDS011;1359;51.798;12.174;2023-05-10T07:53:45;6.63;;;5.53;;
2698;SDS011;1359;51.798;12.174;2023-05-10T07:56:20;8.17;;;6.73;;
2698;SDS011;1359;51.798;12.174;2023-05-10T07:58:46;12.13;;;6.10;;
2698;SDS011;1359;51.798;12.174;2023-05-10T08:01:11;6.90;;;6.20;;
2698;SDS011;1359;51.798;12.174;2023-05-10T08:03:37;6.17;;;5.50;;
2698;SDS011;1359;51.798;12.174;2023-05-10T08:06:02;6.53;;;5.40;;
2698;SDS011;1359;51.798;12.174;2023-05-10T08:08:28;7.43;;;5.80;;
2698;SDS011;1359;51.798;12.174;2023-05-10T08:10:53;7.17;;;5.50;;
2698;SDS011;1359;51.798;12.174;2023-05-10T08:13:19;6.30;;;5.70;;
2698;SDS011;1359;51.798;12.174;2023-05-10T08:15:44;10.33;;;6.03;;
2698;SDS011;1359;51.798;12.174;2023-05-10T08:18:09;8.93;;;6.33;;
2698;SDS011;1359;51.798;12.174;2023-05-10T08:20:35;8.07;;;6.53;;
2698;SDS011;1359;51.798;12.174;2023-05-10T08:23:00;11.50;;;6.10;;
2698;SDS011;1359;51.798;12.174;2023-05-10T08:25:25;5.50;;;5.00;;
2698;SDS011;1359;51.798;12.174;2023-05-10T08:27:51;8.33;;;6.87;;
2698;SDS011;1359;51.798;12.174;2023-05-10T08:30:16;9.50;;;6.30;;
2698;SDS011;1359;51.798;12.174;2023-05-10T08:32:42;6.00;;;5.40;;
2698;SDS011;1359;51.798;12.174;2023-05-10T08:35:07;6.87;;;6.23;;
2698;SDS011;1359;51.798;12.174;2023-05-10T08:37:33;9.20;;;6.57;;
2698;SDS011;1359;51.798;12.174;2023-05-10T08:39:58;6.33;;;5.80;;
2698;SDS011;1359;51.798;12.174;2023-05-10T08:42:23;9.70;;;6.17;;
2698;SDS011;1359;51.798;12.174;2023-05-10T08:44:51;8.00;;;7.23;;
2698;SDS011;1359;51.798;12.174;2023-05-10T08:47:18;8.40;;;6.27;;
2698;SDS011;1359;51.798;12.174;2023-05-10T08:49:44;6.93;;;5.87;;
2698;SDS011;1359;51.798;12.174;2023-05-10T08:52:11;8.40;;;6.17;;
2698;SDS011;1359;51.798;12.174;2023-05-10T08:54:37;6.63;;;5.93;;
2698;SDS011;1359;51.798;12.174;2023-05-10T08:57:03;5.80;;;5.30;;
2698;SDS011;1359;51.798;12.174;2023-05-10T08:59:28;6.23;;;5.53;;
2698;SDS011;1359;51.798;12.174;2023-05-10T09:01:54;6.90;;;6.07;;
2698;SDS011;1359;51.798;12.174;2023-05-10T09:04:20;7.67;;;6.60;;
2698;SDS011;1359;51.798;12.174;2023-05-10T09:06:46;7.47;;;6.50;;
2698;SDS011;1359;51.798;12.174;2023-05-10T09:09:11;6.67;;;6.07;;
2698;SDS011;1359;51.798;12.174;2023-05-10T09:11:37;7.30;;;6.60;;
2698;SDS011;1359;51.798;12.174;2023-05-10T09:14:02;11.60;;;7.37;;
2698;SDS011;1359;51.798;12.174;2023-05-10T09:16:27;8.60;;;6.53;;
2698;SDS011;1359;51.798;12.174;2023-05-10T09:18:53;8.20;;;7.47;;
2698;SDS011;1359;51.798;12.174;2023-05-10T09:21:19;11.70;;;6.20;;
2698;SDS011;1359;51.798;12.174;2023-05-10T09:23:45;7.50;;;6.07;;
2698;SDS011;1359;51.798;12.174;2023-05-10T09:26:11;7.13;;;6.50;;
2698;SDS011;1359;51.798;12.174;2023-05-10T09:28:49;10.83;;;6.90;;
2698;SDS011;1359;51.798;12.174;2023-05-10T09:31:15;8.57;;;7.40;;
2698;SDS011;1359;51.798;12.174;2023-05-10T09:33:44;7.40;;;6.70;;
2698;SDS011;1359;51.798;12.174;2023-05-10T09:36:09;7.07;;;6.47;;
2698;SDS011;1359;51.798;12.174;2023-05-10T09:38:51;8.03;;;6.80;;
2698;SDS011;1359;51.798;12.174;2023-05-10T09:41:22;7.17;;;6.50;;
2698;SDS011;1359;51.798;12.174;2023-05-10T09:43:48;7.77;;;7.07;;
2698;SDS011;1359;51.798;12.174;2023-05-10T09:46:14;7.53;;;6.87;;
2698;SDS011;1359;51.798;12.174;2023-05-10T09:48:44;7.40;;;6.70;;
2698;SDS011;1359;51.798;12.174;2023-05-10T09:51:10;8.07;;;7.27;;
2698;SDS011;1359;51.798;12.174;2023-05-10T09:53:35;8.20;;;6.17;;
2698;SDS011;1359;51.798;12.174;2023-05-10T09:56:01;8.00;;;7.20;;
2698;SDS011;1359;51.798;12.174;2023-05-10T09:58:27;9.23;;;8.13;;
2698;SDS011;1359;51.798;12.174;2023-05-10T10:00:52;8.60;;;7.63;;
2698;SDS011;1359;51.798;12.174;2023-05-10T10:03:21;9.00;;;7.27;;
2698;SDS011;1359;51.798;12.174;2023-05-10T10:05:47;9.40;;;6.57;;
2698;SDS011;1359;51.798;12.174;2023-05-10T10:08:14;10.93;;;7.27;;
2698;SDS011;1359;51.798;12.174;2023-05-10T10:10:39;9.00;;;7.40;;
2698;SDS011;1359;51.798;12.174;2023-05-10T10:13:11;7.63;;;6.83;;
2698;SDS011;1359;51.798;12.174;2023-05-10T10:15:36;7.53;;;6.83;;
2698;SDS011;1359;51.798;12.174;2023-05-10T10:18:02;8.60;;;7.70;;
2698;SDS011;1359;51.798;12.174;2023-05-10T10:20:29;7.53;;;6.83;;
2698;SDS011;1359;51.798;12.174;2023-05-10T10:22:54;9.50;;;6.63;;
2698;SDS011;1359;51.798;12.174;2023-05-10T10:25:20;7.70;;;6.90;;
2698;SDS011;1359;51.798;12.174;2023-05-10T10:32:58;8.80;;;6.60;;
2698;SDS011;1359;51.798;12.174;2023-05-10T10:35:27;9.23;;;7.80;;
2698;SDS011;1359;51.798;12.174;2023-05-10T10:37:53;9.97;;;8.00;;
2698;SDS011;1359;51.798;12.174;2023-05-10T10:42:50;7.63;;;6.40;;
2698;SDS011;1359;51.798;12.174;2023-05-10T10:45:15;7.83;;;7.07;;
2698;SDS011;1359;51.798;12.174;2023-05-10T10:47:41;10.20;;;6.30;;
2698;SDS011;1359;51.798;12.174;2023-05-10T10:50:08;9.00;;;7.67;;
2698;SDS011;1359;51.798;12.174;2023-05-10T10:52:38;10.90;;;7.60;;
2698;SDS011;1359;51.798;12.174;2023-05-10T10:55:04;8.67;;;7.87;;
2698;SDS011;1359;51.798;12.174;2023-05-10T10:57:32;7.77;;;6.97;;
2698;SDS011;1359;51.798;12.174;2023-05-10T11:05:22;8.97;;;8.07;;
2698;SDS011;1359;51.798;12.174;2023-05-10T11:07:54;9.87;;;8.47;;
2698;SDS011;1359;51.798;12.174;2023-05-10T11:10:20;14.03;;;9.20;;
2698;SDS011;1359;51.798;12.174;2023-05-10T11:13:01;12.10;;;9.60;;
2698;SDS011;1359;51.798;12.174;2023-05-10T11:17:55;10.17;;;9.03;;
2698;SDS011;1359;51.798;12.174;2023-05-10T11:20:21;13.13;;;9.83;;
2698;SDS011;1359;51.798;12.174;2023-05-10T11:22:50;14.03;;;10.90;;
2698;SDS011;1359;51.798;12.174;2023-05-10T11:25:18;11.87;;;10.00;;
2698;SDS011;1359;51.798;12.174;2023-05-10T11:27:44;11.53;;;10.43;;
2698;SDS011;1359;51.798;12.174;2023-05-10T11:30:10;11.20;;;10.10;;
2698;SDS011;1359;51.798;12.174;2023-05-10T11:32:37;12.30;;;10.33;;
2698;SDS011;1359;51.798;12.174;2023-05-10T11:35:09;13.07;;;10.70;;
2698;SDS011;1359;51.798;12.174;2023-05-10T11:37:35;11.00;;;9.30;;
2698;SDS011;1359;51.798;12.174;2023-05-10T11:40:00;11.53;;;10.37;;
2698;SDS011;1359;51.798;12.174;2023-05-10T11:42:26;12.83;;;10.00;;
2698;SDS011;1359;51.798;12.174;2023-05-10T11:44:52;10.43;;;9.07;;
2698;SDS011;1359;51.798;12.174;2023-05-10T11:47:17;11.63;;;10.43;;
2698;SDS011;1359;51.798;12.174;2023-05-10T11:49:43;11.67;;;10.47;;
2698;SDS011;1359;51.798;12.174;2023-05-10T11:52:08;11.53;;;10.33;;
2698;SDS011;1359;51.798;12.174;2023-05-10T11:54:36;14.40;;;9.60;;
2698;SDS011;1359;51.798;12.174;2023-05-10T11:57:01;11.60;;;9.80;;
2698;SDS011;1359;51.798;12.174;2023-05-10T11:59:26;13.40;;;11.30;;
2698;SDS011;1359;51.798;12.174;2023-05-10T12:01:52;11.97;;;10.70;;
2698;SDS011;1359;51.798;12.174;2023-05-10T12:04:17;10.90;;;9.80;;
2698;SDS011;1359;51.798;12.174;2023-05-10T12:06:43;13.63;;;11.20;;
2698;SDS011;1359;51.798;12.174;2023-05-10T12:09:09;13.33;;;10.60;;
2698;SDS011;1359;51.798;12.174;2023-05-10T12:11:36;15.87;;;11.53;;
2698;SDS011;1359;51.798;12.174;2023-05-10T12:14:03;12.60;;;10.77;;
2698;SDS011;1359;51.798;12.174;2023-05-10T12:16:29;12.40;;;11.10;;
2698;SDS011;1359;51.798;12.174;2023-05-10T12:18:59;18.43;;;14.03;;
2698;SDS011;1359;51.798;12.174;2023-05-10T12:21:24;15.87;;;12.97;;
2698;SDS011;1359;51.798;12.174;2023-05-10T12:23:51;16.70;;;11.70;;
2698;SDS011;1359;51.798;12.174;2023-05-10T12:26:16;13.20;;;11.10;;
2698;SDS011;1359;51.798;12.174;2023-05-10T12:28:42;14.23;;;12.63;;
2698;SDS011;1359;51.798;12.174;2023-05-10T12:31:07;13.27;;;11.20;;
2698;SDS011;1359;51.798;12.174;2023-05-10T12:33:36;15.33;;;11.40;;
2698;SDS011;1359;51.798;12.174;2023-05-10T12:36:04;12.83;;;10.00;;
2698;SDS011;1359;51.798;12.174;2023-05-10T12:38:37;17.87;;;13.27;;
2698;SDS011;1359;51.798;12.174;2023-05-10T12:41:07;11.10;;;9.80;;
2698;SDS011;1359;51.798;12.174;2023-05-10T12:43:33;13.33;;;11.70;;
2698;SDS011;1359;51.798;12.174;2023-05-10T12:46:03;12.77;;;11.10;;
2698;SDS011;1359;51.798;12.174;2023-05-10T12:48:29;13.73;;;12.07;;
2698;SDS011;1359;51.798;12.174;2023-05-10T12:50:56;14.53;;;12.50;;
2698;SDS011;1359;51.798;12.174;2023-05-10T12:53:21;13.77;;;11.80;;
2698;SDS011;1359;51.798;12.174;2023-05-10T12:55:46;14.03;;;12.53;;
2698;SDS011;1359;51.798;12.174;2023-05-10T12:58:12;13.63;;;11.83;;
2698;SDS011;1359;51.798;12.174;2023-05-10T13:00:37;13.60;;;11.47;;
2698;SDS011;1359;51.798;12.174;2023-05-10T13:03:03;16.70;;;12.40;;
2698;SDS011;1359;51.798;12.174;2023-05-10T13:05:29;14.00;;;12.27;;
2698;SDS011;1359;51.798;12.174;2023-05-10T13:07:54;14.10;;;12.60;;
2698;SDS011;1359;51.798;12.174;2023-05-10T13:10:19;14.30;;;11.60;;
2698;SDS011;1359;51.798;12.174;2023-05-10T13:12:45;16.93;;;13.03;;
2698;SDS011;1359;51.798;12.174;2023-05-10T13:15:10;16.63;;;14.00;;
2698;SDS011;1359;51.798;12.174;2023-05-10T13:17:35;15.73;;;13.17;;
2698;SDS011;1359;51.798;12.174;2023-05-10T13:20:01;13.90;;;12.50;;
2698;SDS011;1359;51.798;12.174;2023-05-10T13:22:26;12.63;;;11.40;;
2698;SDS011;1359;51.798;12.174;2023-05-10T13:24:51;13.87;;;12.57;;
2698;SDS011;1359;51.798;12.174;2023-05-10T13:27:17;14.77;;;13.20;;
2698;SDS011;1359;51.798;12.174;2023-05-10T13:29:42;14.50;;;12.87;;
2698;SDS011;1359;51.798;12.174;2023-05-10T13:32:07;15.70;;;14.10;;
2698;SDS011;1359;51.798;12.174;2023-05-10T13:34:33;19.30;;;13.17;;
2698;SDS011;1359;51.798;12.174;2023-05-10T13:36:58;18.83;;;14.00;;
2698;SDS011;1359;51.798;12.174;2023-05-10T13:39:23;14.27;;;12.87;;
2698;SDS011;1359;51.798;12.174;2023-05-10T13:41:49;16.17;;;14.47;;
2698;SDS011;1359;51.798;12.174;2023-05-10T13:44:14;16.77;;;13.73;;
2698;SDS011;1359;51.798;12.174;2023-05-10T13:46:40;16.07;;;13.13;;
2698;SDS011;1359;51.798;12.174;2023-05-10T13:49:06;17.77;;;13.57;;
2698;SDS011;1359;51.798;12.174;2023-05-10T13:51:31;14.77;;;13.30;;
2698;SDS011;1359;51.798;12.174;2023-05-10T13:53:57;14.87;;;13.40;;
2698;SDS011;1359;51.798;12.174;2023-05-10T13:56:23;14.67;;;12.77;;
2698;SDS011;1359;51.798;12.174;2023-05-10T13:58:48;13.87;;;12.40;;
2698;SDS011;1359;51.798;12.174;2023-05-10T14:01:13;16.23;;;13.97;;
2698;SDS011;1359;51.798;12.174;2023-05-10T14:03:39;14.13;;;12.60;;
2698;SDS011;1359;51.798;12.174;2023-05-10T14:06:04;16.00;;;12.27;;
2698;SDS011;1359;51.798;12.174;2023-05-10T14:08:29;16.80;;;13.37;;
2698;SDS011;1359;51.798;12.174;2023-05-10T14:10:55;19.20;;;13.23;;
2698;SDS011;1359;51.798;12.174;2023-05-10T14:13:21;20.23;;;14.57;;
2698;SDS011;1359;51.798;12.174;2023-05-10T14:15:46;17.00;;;12.83;;
2698;SDS011;1359;51.798;12.174;2023-05-10T14:18:12;18.30;;;14.53;;
2698;SDS011;1359;51.798;12.174;2023-05-10T14:20:37;15.30;;;13.10;;
2698;SDS011;1359;51.798;12.174;2023-05-10T14:23:02;15.17;;;12.70;;
2698;SDS011;1359;51.798;12.174;2023-05-10T14:25:28;17.03;;;15.17;;
2698;SDS011;1359;51.798;12.174;2023-05-10T14:27:53;16.00;;;14.20;;
2698;SDS011;1359;51.798;12.174;2023-05-10T14:30:20;16.57;;;14.87;;
2698;SDS011;1359;51.798;12.174;2023-05-10T14:32:45;18.03;;;15.80;;
2698;SDS011;1359;51.798;12.174;2023-05-10T14:35:11;15.70;;;14.10;;
2698;SDS011;1359;51.798;12.174;2023-05-10T14:37:38;16.60;;;14.73;;
2698;SDS011;1359;51.798;12.174;2023-05-10T14:40:03;19.20;;;15.90;;
2698;SDS011;1359;51.798;12.174;2023-05-10T14:42:29;17.00;;;15.00;;
2698;SDS011;1359;51.798;12.174;2023-05-10T14:44:54;18.20;;;13.90;;
2698;SDS011;1359;51.798;12.174;2023-05-10T14:47:20;29.17;;;17.50;;
2698;SDS011;1359;51.798;12.174;2023-05-10T14:49:45;18.67;;;16.70;;
2698;SDS011;1359;51.798;12.174;2023-05-10T14:52:11;17.30;;;15.17;;
2698;SDS011;1359;51.798;12.174;2023-05-10T14:54:37;17.43;;;15.70;;
2698;SDS011;1359;51.798;12.174;2023-05-10T14:57:02;17.73;;;15.73;;
2698;SDS011;1359;51.798;12.174;2023-05-10T14:59:28;15.73;;;13.77;;
2698;SDS011;1359;51.798;12.174;2023-05-10T15:01:53;15.13;;;13.67;;
2698;SDS011;1359;51.798;12.174;2023-05-10T15:04:18;16.13;;;14.40;;
2698;SDS011;1359;51.798;12.174;2023-05-10T15:06:43;16.20;;;13.03;;
2698;SDS011;1359;51.798;12.174;2023-05-10T15:09:09;13.70;;;12.37;;
2698;SDS011;1359;51.798;12.174;2023-05-10T15:11:35;13.00;;;11.70;;
2698;SDS011;1359;51.798;12.174;2023-05-10T15:14:00;11.83;;;10.73;;
2698;SDS011;1359;51.798;12.174;2023-05-10T15:16:26;13.10;;;11.90;;